Time;durP1;ratioP1;P1;durP2;ratioP2;P2;SDS_P1;SDS_P2;PMS_P1;PMS_P2;Temp;Humidity;BMP_temperature;BMP_pressure;BME280_temperature;BME280_humidity;BME280_pressure;Samples;Min_cycle;Max_cycle;Signal;HPM_P1;HPM_P2
2022/12/23 00:00:34;;;;;;;173.05;92.88;;;;;;;3.64;67.26;94498.69;4175537;28;20052;-75
2022/12/23 00:02:36;;;;;;;190.52;105.22;;;;;;;3.66;67.54;94494.19;4161026;28;20061;-78
2022/12/23 00:04:38;;;;;;;202.88;110.00;;;;;;;3.65;67.34;94495.13;4167172;28;20464;-75
2022/12/23 00:06:40;;;;;;;202.18;109.25;;;;;;;3.54;67.39;94499.53;4172962;28;20413;-76
2022/12/23 00:21:27;;;;;;;239.30;127.45;;;;;;;3.82;66.33;94513.69;4165746;28;20638;-75
2022/12/23 00:23:34;;;;;;;237.77;128.25;;;;;;;3.92;66.38;94506.03;4175612;28;20099;-74
2022/12/23 00:25:40;;;;;;;228.43;119.47;;;;;;;3.89;66.24;94512.25;4164619;28;20063;-74
2022/12/23 00:28:00;;;;;;;229.43;118.65;;;;;;;3.95;65.96;94514.34;4165432;28;20057;-73
2022/12/23 00:30:03;;;;;;;204.45;112.60;;;;;;;4.03;66.30;94506.78;4175210;28;20064;-76
2022/12/23 00:32:04;;;;;;;225.60;116.83;;;;;;;4.08;66.12;94509.00;4175961;28;20548;-75
2022/12/23 00:34:06;;;;;;;221.32;114.43;;;;;;;4.12;65.42;94507.00;4181672;28;20278;-74
2022/12/23 00:36:22;;;;;;;198.95;110.05;;;;;;;4.16;65.24;94511.81;4184064;28;20057;-75
2022/12/23 00:43:10;;;;;;;;;;;;;;;4.19;65.02;94506.34;4175590;28;20110;-74
2022/12/23 00:45:14;;;;;;;210.43;114.05;;;;;;;4.16;64.86;94500.63;4174966;28;20141;-73
2022/12/23 00:49:43;;;;;;;222.50;122.13;;;;;;;4.07;65.29;94492.63;4169075;28;20053;-74
2022/12/23 00:51:45;;;;;;;225.52;121.97;;;;;;;4.03;65.68;94490.44;4165947;28;20502;-74
2022/12/23 00:53:47;;;;;;;219.35;116.50;;;;;;;3.84;66.47;94485.91;4168383;28;20068;-72
2022/12/23 00:55:52;;;;;;;217.20;117.88;;;;;;;3.66;66.57;94489.03;4174441;28;20080;-73
2022/12/23 00:57:54;;;;;;;217.00;118.75;;;;;;;3.59;67.47;94492.22;4162863;28;20049;-75
2022/12/23 00:59:56;;;;;;;231.85;119.03;;;;;;;3.57;67.03;94499.28;4165381;28;20484;-74
2022/12/23 01:06:38;;;;;;;259.05;132.70;;;;;;;3.02;68.33;94509.59;4155615;28;20075;-73
2022/12/23 01:08:40;;;;;;;249.70;131.02;;;;;;;2.84;69.34;94511.84;4182985;28;20509;-74
2022/12/23 01:10:42;;;;;;;258.73;134.95;;;;;;;2.81;69.95;94507.69;4168801;28;20130;-75
2022/12/23 01:12:50;;;;;;;267.13;131.65;;;;;;;2.87;69.51;94502.06;4171717;28;20450;-75
2022/12/23 01:14:52;;;;;;;270.10;139.13;;;;;;;2.79;69.97;94506.16;4188059;28;20050;-75
2022/12/23 01:16:54;;;;;;;228.95;126.93;;;;;;;2.77;70.31;94505.47;4176753;28;20144;-74
2022/12/23 01:18:55;;;;;;;240.60;132.80;;;;;;;2.90;70.33;94501.00;4186128;28;20075;-76
2022/12/23 01:21:01;;;;;;;230.43;125.53;;;;;;;3.06;69.37;94496.28;4177034;28;20507;-76
2022/12/23 01:23:03;;;;;;;216.80;121.60;;;;;;;3.20;69.03;94505.56;4178203;28;20049;-74
2022/12/23 01:25:06;;;;;;;177.18;99.88;;;;;;;3.39;68.87;94502.38;4176750;28;20056;-74
2022/12/23 01:27:08;;;;;;;183.27;99.00;;;;;;;3.53;67.74;94493.53;4177813;28;20053;-75
2022/12/23 01:29:09;;;;;;;181.38;101.35;;;;;;;3.63;67.09;94493.63;4170137;28;20465;-74
2022/12/23 01:31:11;;;;;;;176.52;102.10;;;;;;;3.55;68.03;94491.66;4181006;28;20524;-77
2022/12/23 01:33:13;;;;;;;178.82;100.03;;;;;;;3.54;67.96;94495.16;4177354;28;20392;-75
2022/12/23 01:35:15;;;;;;;178.23;98.38;;;;;;;3.55;68.04;94490.81;4167197;28;20057;-74
2022/12/23 01:37:16;;;;;;;171.18;98.32;;;;;;;3.49;68.11;94486.94;4159623;28;20491;-75
2022/12/23 01:39:18;;;;;;;181.93;98.25;;;;;;;3.36;68.58;94494.03;4172339;28;20246;-74
2022/12/23 01:43:50;;;;;;;172.45;87.47;;;;;;;3.05;68.97;94481.72;4177967;28;20048;-75
2022/12/23 01:45:52;;;;;;;163.05;92.35;;;;;;;3.06;69.83;94474.78;4177452;28;20061;-75
2022/12/23 01:48:12;;;;;;;159.27;90.22;;;;;;;3.23;69.56;94471.69;4189018;28;20509;-74
2022/12/23 01:50:36;;;;;;;156.82;88.10;;;;;;;3.32;69.09;94471.91;4173076;28;20451;-75
2022/12/23 01:52:55;;;;;;;162.77;92.15;;;;;;;3.45;68.85;94465.63;4169076;28;20088;-76
2022/12/23 01:55:05;;;;;;;167.18;88.43;;;;;;;3.68;68.77;94468.19;4187715;28;20067;-73
2022/12/23 01:57:07;;;;;;;157.30;89.10;;;;;;;3.88;67.95;94467.38;4168840;28;20547;-76
2022/12/23 02:03:40;;;;;;;155.68;88.65;;;;;;;3.96;67.16;94453.81;4177763;28;20060;-73
2022/12/23 02:03:56;;;;;;;169.05;96.25;;;;;;;4.21;67.21;94438.84;4160952;28;20076;-73
2022/12/23 02:09:15;;;;;;;168.02;91.63;;;;;;;4.21;66.83;94442.25;4149985;28;20049;-74
2022/12/23 02:11:34;;;;;;;164.05;84.53;;;;;;;4.21;66.04;94438.84;4145559;28;20072;-73
2022/12/23 02:16:37;;;;;;;140.98;73.53;;;;;;;3.94;66.60;94442.75;4161298;28;20136;-75
2022/12/23 02:19:08;;;;;;;147.18;76.05;;;;;;;3.90;67.69;94431.00;4158712;28;20071;-74
2022/12/23 02:21:31;;;;;;;141.38;76.25;;;;;;;3.99;67.78;94432.81;4151032;28;20049;-73
2022/12/23 02:24:04;;;;;;;152.98;83.15;;;;;;;3.79;67.21;94431.03;4175444;28;20055;-75
2022/12/23 02:26:24;;;;;;;146.10;77.88;;;;;;;3.83;67.81;94422.06;4172704;28;20065;-75
2022/12/23 02:28:50;;;;;;;151.50;78.65;;;;;;;3.99;68.42;94432.81;4175218;28;20057;-75
2022/12/23 02:31:15;;;;;;;154.45;81.57;;;;;;;4.16;67.21;94428.84;4171850;28;20591;-74
2022/12/23 02:33:41;;;;;;;155.57;83.20;;;;;;;4.24;67.12;94430.81;4158023;28;20119;-74
2022/12/23 02:35:55;;;;;;;144.98;79.15;;;;;;;4.34;66.92;94430.84;4142661;28;20053;-72
2022/12/23 02:38:45;;;;;;;170.70;91.47;;;;;;;4.35;65.82;94437.69;4168109;28;20056;-74
2022/12/23 02:40:52;;;;;;;186.82;97.55;;;;;;;4.28;66.61;94432.19;4108318;28;20051;-73
2022/12/23 02:43:16;;;;;;;180.35;92.82;;;;;;;4.33;66.78;94424.03;4136366;28;20056;-72
2022/12/23 02:45:23;;;;;;;164.98;91.72;;;;;;;4.38;66.46;94421.88;4158367;28;20088;-72
2022/12/23 02:47:33;;;;;;;171.07;94.00;;;;;;;4.47;65.65;94415.91;4163849;28;20068;-73
2022/12/23 02:49:46;;;;;;;187.38;99.40;;;;;;;4.06;65.98;94438.31;4163378;28;20113;-74
2022/12/23 02:51:52;;;;;;;196.20;104.97;;;;;;;3.83;67.11;94443.63;4157655;28;20528;-74
2022/12/23 02:53:57;;;;;;;212.00;109.45;;;;;;;3.87;67.96;94447.63;4158582;28;20163;-72
2022/12/23 02:56:00;;;;;;;216.95;117.53;;;;;;;3.22;68.90;94446.72;4144730;28;20053;-74
2022/12/23 02:58:05;;;;;;;221.10;117.30;;;;;;;3.17;70.09;94435.94;4158259;28;20606;-73
2022/12/23 03:00:08;;;;;;;224.98;120.55;;;;;;;2.98;70.75;94439.13;4158757;28;20085;-73
2022/12/23 03:02:09;;;;;;;229.82;118.50;;;;;;;3.13;69.99;94429.34;4167364;28;20056;-73
2022/12/23 03:04:13;;;;;;;223.15;114.90;;;;;;;3.24;69.15;94437.06;4175572;28;20115;-74
2022/12/23 03:06:20;;;;;;;212.80;113.03;;;;;;;3.13;69.09;94442.28;4174896;28;20405;-74
2022/12/23 03:08:25;;;;;;;218.77;111.95;;;;;;;3.04;69.74;94449.00;4175856;28;20099;-74
2022/12/23 03:10:53;;;;;;;194.82;105.97;;;;;;;3.09;69.87;94438.28;4163375;28;20057;-74
2022/12/23 03:13:28;;;;;;;188.80;104.57;;;;;;;3.06;68.96;94441.13;4174179;28;20485;-74
2022/12/23 03:15:53;;;;;;;198.80;103.75;;;;;;;3.05;69.02;94429.13;4158255;28;20057;-73
2022/12/23 03:18:23;;;;;;;199.75;106.13;;;;;;;3.15;68.72;94437.00;4142458;28;20058;-75
2022/12/23 03:20:53;;;;;;;192.05;100.80;;;;;;;2.71;70.33;94438.66;4159131;28;20852;-75
2022/12/23 03:23:23;;;;;;;189.13;104.32;;;;;;;2.91;70.15;94431.97;4157322;28;20050;-73
2022/12/23 03:25:32;;;;;;;188.80;105.70;;;;;;;3.06;69.53;94435.94;4175282;28;20057;-74
2022/12/23 03:27:39;;;;;;;187.57;105.53;;;;;;;3.21;68.62;94428.75;4151271;28;20054;-75
2022/12/23 03:29:50;;;;;;;203.38;105.40;;;;;;;3.36;68.22;94434.50;4171427;28;20057;-74
2022/12/23 03:31:52;;;;;;;184.75;101.25;;;;;;;3.45;67.54;94428.56;4171195;28;20117;-72
2022/12/23 03:33:58;;;;;;;187.35;103.75;;;;;;;3.56;67.27;94422.53;4159707;28;20049;-74
2022/12/23 03:36:33;;;;;;;190.20;99.72;;;;;;;3.60;66.94;94431.69;4171170;28;20087;-73
2022/12/23 03:38:39;;;;;;;176.90;96.40;;;;;;;3.59;66.72;94430.88;4150223;28;20092;-74
2022/12/23 03:40:44;;;;;;;189.93;99.28;;;;;;;3.67;66.86;94431.06;4157750;28;20053;-73
2022/12/23 03:42:49;;;;;;;169.98;92.47;;;;;;;3.72;67.10;94435.06;4146560;28;20112;-75
2022/12/23 03:44:51;;;;;;;162.15;92.47;;;;;;;3.77;66.17;94433.75;4147529;28;20049;-74
2022/12/23 03:47:17;;;;;;;169.15;92.30;;;;;;;3.89;66.92;94447.47;4151425;28;20794;-73
2022/12/23 03:49:26;;;;;;;167.85;91.90;;;;;;;3.91;66.34;94437.81;4173973;28;20060;-73
2022/12/23 03:51:35;;;;;;;167.77;90.95;;;;;;;3.96;66.02;94434.81;4147357;28;20492;-73
2022/12/23 03:53:41;;;;;;;154.52;86.93;;;;;;;4.04;66.30;94450.59;4160805;28;20476;-74
2022/12/23 03:55:49;;;;;;;155.50;83.93;;;;;;;4.05;66.46;94436.69;4156609;28;20061;-75
2022/12/23 03:58:11;;;;;;;148.35;80.75;;;;;;;4.11;65.47;94438.78;4170759;28;20083;-75
2022/12/23 04:00:12;;;;;;;158.65;82.93;;;;;;;4.18;65.58;94439.09;4171405;28;20168;-75
2022/12/23 04:02:40;;;;;;;147.88;82.85;;;;;;;4.24;64.85;94433.41;4144815;28;20057;-75
2022/12/23 04:04:47;;;;;;;149.70;76.85;;;;;;;4.25;65.64;94435.03;4149840;28;20129;-73
2022/12/23 04:07:15;;;;;;;139.30;78.28;;;;;;;4.23;65.32;94434.34;4160222;28;20053;-73
2022/12/23 04:09:18;;;;;;;140.68;77.15;;;;;;;4.23;65.96;94429.16;4136585;28;20069;-76
2022/12/23 04:11:23;;;;;;;154.27;79.97;;;;;;;4.25;65.54;94446.22;4148461;28;20116;-73
2022/12/23 04:13:26;;;;;;;158.00;84.45;;;;;;;4.29;64.91;94439.03;4175374;28;20057;-74
2022/12/23 04:15:28;;;;;;;151.48;85.93;;;;;;;4.32;65.84;94433.56;4156840;28;20089;-73
2022/12/23 04:17:29;;;;;;;158.38;87.72;;;;;;;4.35;65.47;94443.72;4156675;28;20103;-73
2022/12/23 04:19:32;;;;;;;147.18;85.43;;;;;;;4.37;65.36;94435.81;4183184;28;20500;-72
2022/12/23 04:21:33;;;;;;;151.80;85.90;;;;;;;4.37;65.36;94436.63;4157419;28;20057;-73
2022/12/23 04:23:35;;;;;;;156.98;86.75;;;;;;;4.42;65.66;94439.66;4164332;28;20065;-74
2022/12/23 04:25:37;;;;;;;148.00;81.68;;;;;;;4.42;65.91;94438.81;4175077;28;20045;-76
2022/12/23 04:27:39;;;;;;;155.32;85.22;;;;;;;4.45;65.36;94429.03;4167540;28;20076;-77
2022/12/23 04:29:41;;;;;;;152.18;86.30;;;;;;;4.53;65.72;94430.97;4145458;28;20365;-74
2022/12/23 04:31:43;;;;;;;172.73;91.53;;;;;;;4.57;65.33;94434.94;4151343;28;20049;-74
2022/12/23 04:33:45;;;;;;;178.48;92.68;;;;;;;4.55;66.00;94436.03;4168751;28;20152;-74
2022/12/23 04:35:46;;;;;;;173.23;92.60;;;;;;;4.43;66.40;94419.72;4160807;28;20049;-75
2022/12/23 04:37:48;;;;;;;170.75;95.93;;;;;;;4.47;66.86;94416.75;4173378;28;20053;-72
2022/12/23 04:39:50;;;;;;;175.30;91.32;;;;;;;4.53;67.12;94428.38;4163804;28;20280;-75
2022/12/23 04:41:51;;;;;;;181.73;96.97;;;;;;;4.60;66.34;94433.84;4151512;28;20128;-74
2022/12/23 04:43:53;;;;;;;176.75;93.80;;;;;;;4.48;66.33;94433.13;4161043;28;20128;-73
2022/12/23 04:45:55;;;;;;;172.50;96.18;;;;;;;4.29;66.95;94429.47;4172315;28;20056;-73
2022/12/23 04:47:57;;;;;;;176.40;92.82;;;;;;;4.30;67.39;94430.28;4172524;28;20056;-73
2022/12/23 04:49:59;;;;;;;171.23;93.55;;;;;;;4.42;66.38;94444.00;4162872;28;20054;-73
2022/12/23 04:52:01;;;;;;;169.13;94.30;;;;;;;4.46;67.11;94446.22;4163315;28;20463;-73
2022/12/23 04:54:02;;;;;;;186.57;95.63;;;;;;;4.39;66.64;94437.31;4166122;28;20125;-72
2022/12/23 04:56:04;;;;;;;167.55;92.40;;;;;;;4.43;66.55;94436.13;4163162;28;20419;-73
2022/12/23 04:58:06;;;;;;;174.20;93.95;;;;;;;4.48;66.89;94433.94;4164261;28;20129;-73
2022/12/23 05:00:08;;;;;;;176.85;96.32;;;;;;;4.51;67.09;94444.06;4163932;28;20057;-75
2022/12/23 05:02:10;;;;;;;166.73;93.13;;;;;;;4.60;66.82;94444.22;4165403;28;20061;-74
2022/12/23 05:04:12;;;;;;;169.15;90.03;;;;;;;4.67;66.72;94458.34;4165076;28;20045;-74
2022/12/23 05:06:14;;;;;;;172.85;91.00;;;;;;;4.68;66.86;94458.22;4169900;28;20061;-73
2022/12/23 05:08:16;;;;;;;160.95;88.50;;;;;;;4.58;65.97;94465.16;4178029;28;20126;-75
2022/12/23 05:10:18;;;;;;;167.30;92.00;;;;;;;3.81;68.37;94466.25;4171370;28;20473;-75
2022/12/23 05:12:20;;;;;;;160.63;87.88;;;;;;;3.87;69.30;94460.56;4170375;28;20052;-74
2022/12/23 05:14:22;;;;;;;164.07;86.93;;;;;;;3.90;68.58;94475.03;4178388;28;20455;-78
2022/12/23 05:16:24;;;;;;;172.10;90.93;;;;;;;3.95;69.17;94478.06;4170796;28;20472;-78
2022/12/23 05:18:26;;;;;;;161.27;90.22;;;;;;;4.07;68.95;94466.72;4159448;28;20177;-74
2022/12/23 05:20:28;;;;;;;163.10;89.13;;;;;;;4.15;69.03;94460.91;4176336;28;20315;-76
2022/12/23 05:22:29;;;;;;;166.10;89.05;;;;;;;4.28;68.69;94458.09;4177750;28;20460;-73
2022/12/23 05:24:31;;;;;;;154.57;86.78;;;;;;;4.37;67.70;94461.75;4177021;28;20189;-74
2022/12/23 05:26:33;;;;;;;159.18;89.60;;;;;;;4.44;67.61;94479.25;4171591;28;20056;-74
2022/12/23 05:28:34;;;;;;;147.20;84.75;;;;;;;4.53;67.00;94469.88;4176260;28;20191;-74
2022/12/23 05:30:36;;;;;;;150.80;80.95;;;;;;;4.59;67.52;94460.78;4162617;28;20139;-76
2022/12/23 05:32:38;;;;;;;147.27;84.03;;;;;;;4.65;66.75;94468.03;4168569;28;20130;-75
2022/12/23 05:34:40;;;;;;;154.80;83.53;;;;;;;4.62;66.87;94466.50;4163062;28;20065;-75
2022/12/23 05:36:41;;;;;;;151.25;86.57;;;;;;;4.67;66.90;94458.34;4174833;28;20186;-74
2022/12/23 05:38:43;;;;;;;154.68;84.10;;;;;;;4.75;67.04;94463.69;4177613;28;20065;-73
2022/12/23 05:40:45;;;;;;;150.60;85.85;;;;;;;4.80;66.79;94458.16;4176648;28;20238;-75
2022/12/23 05:42:47;;;;;;;154.32;85.53;;;;;;;4.79;66.67;94459.91;4165493;28;20121;-75
2022/12/23 05:44:49;;;;;;;147.63;82.78;;;;;;;4.61;67.17;94458.88;4166069;28;20049;-73
2022/12/23 05:46:50;;;;;;;148.18;83.22;;;;;;;4.55;67.49;94465.38;4176760;28;20087;-75
2022/12/23 05:48:52;;;;;;;146.20;83.50;;;;;;;4.56;68.17;94461.00;4177465;28;20435;-75
2022/12/23 05:50:54;;;;;;;137.48;79.00;;;;;;;4.59;66.99;94460.78;4165119;28;20510;-75
2022/12/23 05:52:56;;;;;;;135.02;76.60;;;;;;;4.55;67.38;94465.38;4162299;28;20054;-77
2022/12/23 05:54:58;;;;;;;141.40;80.70;;;;;;;4.49;67.68;94471.88;4160992;28;20265;-75
2022/12/23 05:56:59;;;;;;;140.52;79.13;;;;;;;4.56;68.06;94468.78;4172130;28;20069;-74
2022/12/23 05:59:01;;;;;;;143.55;79.57;;;;;;;4.67;68.01;94466.16;4176809;28;20198;-75
2022/12/23 06:01:03;;;;;;;149.45;82.03;;;;;;;4.75;67.58;94468.88;4176687;28;20053;-75
2022/12/23 06:03:05;;;;;;;138.05;76.57;;;;;;;4.79;67.49;94467.69;4176877;28;20505;-76
2022/12/23 06:05:08;;;;;;;144.27;81.03;;;;;;;4.88;67.58;94469.53;4176832;28;20445;-75
2022/12/23 06:07:10;;;;;;;132.32;77.88;;;;;;;4.98;67.32;94474.75;4175821;28;20065;-76
2022/12/23 06:09:11;;;;;;;139.77;76.38;;;;;;;5.05;66.86;94465.47;4172214;28;20488;-74
2022/12/23 06:11:13;;;;;;;137.75;77.85;;;;;;;5.11;66.72;94466.72;4164957;28;20061;-75
2022/12/23 06:13:15;;;;;;;132.65;75.75;;;;;;;5.17;66.37;94471.41;4175336;28;20532;-74
2022/12/23 06:15:17;;;;;;;138.57;80.10;;;;;;;5.17;66.52;94462.78;4176172;28;20128;-75
2022/12/23 06:17:18;;;;;;;160.07;84.15;;;;;;;5.18;66.58;94477.41;4175317;28;20476;-73
2022/12/23 06:19:20;;;;;;;141.55;80.05;;;;;;;5.21;66.48;94474.56;4169516;28;20053;-73
2022/12/23 06:21:22;;;;;;;140.48;81.15;;;;;;;5.23;66.58;94467.47;4158698;28;20061;-74
2022/12/23 06:23:23;;;;;;;141.52;77.72;;;;;;;5.24;66.13;94461.31;4160389;28;20461;-76
2022/12/23 06:25:25;;;;;;;145.20;80.93;;;;;;;5.21;66.17;94462.41;4174790;28;20424;-76
2022/12/23 06:27:27;;;;;;;141.68;80.47;;;;;;;5.20;66.38;94470.31;4176261;28;20098;-74
2022/12/23 06:29:28;;;;;;;144.75;78.90;;;;;;;5.26;66.06;94468.00;4176738;28;20060;-75
2022/12/23 06:31:30;;;;;;;138.02;76.30;;;;;;;5.33;66.47;94466.53;4163110;28;20090;-74
2022/12/23 06:33:32;;;;;;;147.55;77.30;;;;;;;5.29;65.72;94475.53;4170963;28;20064;-77
2022/12/23 06:35:33;;;;;;;141.45;77.30;;;;;;;5.25;66.01;94474.16;4173371;28;20060;-73
2022/12/23 06:37:35;;;;;;;143.88;79.82;;;;;;;4.91;66.61;94479.63;4184836;28;20060;-74
2022/12/23 06:39:37;;;;;;;150.70;85.63;;;;;;;4.77;67.86;94479.97;4163040;28;20053;-74
2022/12/23 06:41:39;;;;;;;162.02;86.90;;;;;;;4.57;68.05;94473.03;4170409;28;20116;-73
2022/12/23 06:43:40;;;;;;;154.88;85.22;;;;;;;4.62;68.38;94478.66;4169312;28;20348;-75
2022/12/23 06:45:46;;;;;;;153.52;83.78;;;;;;;4.72;67.76;94479.53;4176015;28;20064;-72
2022/12/23 06:47:48;;;;;;;150.70;83.57;;;;;;;4.79;68.40;94480.66;4163541;28;20460;-72
2022/12/23 06:49:50;;;;;;;156.85;84.65;;;;;;;4.60;67.15;94480.56;4176221;28;20052;-73
2022/12/23 06:51:52;;;;;;;147.00;82.10;;;;;;;4.53;68.93;94485.44;4175246;28;20148;-75
2022/12/23 06:53:53;;;;;;;147.23;81.88;;;;;;;4.50;68.15;94489.13;4176179;28;20061;-77
2022/12/23 06:55:59;;;;;;;139.38;80.40;;;;;;;4.49;68.57;94482.25;4173976;28;20504;-78
2022/12/23 06:58:01;;;;;;;140.23;75.63;;;;;;;4.40;68.28;94479.63;4174404;28;20087;-75
2022/12/23 07:00:04;;;;;;;135.70;74.53;;;;;;;4.08;69.00;94483.91;4174674;28;20088;-76
2022/12/23 07:02:06;;;;;;;126.13;72.13;;;;;;;3.99;69.75;94483.84;4172502;28;20052;-74
2022/12/23 07:04:09;;;;;;;130.48;69.65;;;;;;;4.09;69.85;94488.16;4176285;28;20187;-75
2022/12/23 07:06:10;;;;;;;118.43;65.65;;;;;;;4.21;68.95;94486.31;4173248;28;20053;-75
2022/12/23 07:08:12;;;;;;;135.45;66.88;;;;;;;4.31;68.49;94489.81;4174452;28;20503;-73
2022/12/23 07:10:14;;;;;;;111.28;62.40;;;;;;;4.47;67.51;94485.94;4172212;28;20166;-74
2022/12/23 07:12:16;;;;;;;121.05;63.78;;;;;;;4.53;67.04;94485.44;4174996;28;20292;-76
2022/12/23 07:14:17;;;;;;;107.65;62.13;;;;;;;4.58;66.60;94488.50;4182722;28;20361;-75
2022/12/23 07:16:19;;;;;;;111.35;61.35;;;;;;;4.63;67.16;94486.31;4176305;28;20060;-75
2022/12/23 07:18:22;;;;;;;103.70;58.15;;;;;;;4.78;66.71;94492.00;4176310;28;20114;-74
2022/12/23 07:20:23;;;;;;;108.32;58.05;;;;;;;4.62;65.88;94486.44;4175547;28;20057;-75
2022/12/23 07:22:25;;;;;;;101.47;58.17;;;;;;;4.47;66.87;94488.53;4169757;28;20208;-77
2022/12/23 07:24:27;;;;;;;114.47;58.78;;;;;;;4.33;67.06;94481.09;4168140;28;20368;-77
2022/12/23 07:26:29;;;;;;;102.95;57.30;;;;;;;4.39;67.21;94484.00;4175558;28;20049;-75
2022/12/23 07:28:30;;;;;;;104.95;55.50;;;;;;;4.49;67.11;94490.03;4158819;28;20061;-75
2022/12/23 07:30:32;;;;;;;110.63;56.70;;;;;;;4.45;66.73;94486.09;4176070;28;20059;-74
2022/12/23 07:32:34;;;;;;;100.55;55.17;;;;;;;4.51;66.46;94495.94;4165788;28;20190;-75
2022/12/23 07:34:35;;;;;;;105.18;58.35;;;;;;;4.64;66.58;94492.34;4167507;28;20092;-78
2022/12/23 07:36:37;;;;;;;106.15;55.63;;;;;;;4.80;65.61;94499.66;4156093;28;20059;-76
2022/12/23 07:38:39;;;;;;;103.45;55.15;;;;;;;4.84;65.89;94504.47;4175761;28;20243;-75
2022/12/23 07:40:40;;;;;;;90.70;53.70;;;;;;;4.69;65.34;94503.16;4175464;28;20064;-77
2022/12/23 07:42:42;;;;;;;98.18;57.15;;;;;;;4.71;65.85;94506.44;4174700;28;20053;-75
2022/12/23 07:44:47;;;;;;;98.88;54.70;;;;;;;4.92;65.85;94507.22;4175368;28;20381;-74
2022/12/23 07:46:48;;;;;;;92.32;54.25;;;;;;;5.11;66.05;94500.47;4174999;28;20130;-74
2022/12/23 07:48:50;;;;;;;103.20;53.25;;;;;;;5.25;64.04;94507.94;4175166;28;20152;-75
2022/12/23 07:50:52;;;;;;;92.50;51.30;;;;;;;5.48;65.43;94502.50;4173595;28;20107;-82
2022/12/23 07:52:54;;;;;;;101.07;53.00;;;;;;;5.68;64.73;94506.81;4175787;28;20431;-77
2022/12/23 07:54:58;;;;;;;;;;;;;;;5.88;63.75;94509.44;4174950;28;20049;-74
2022/12/23 07:56:59;;;;;;;100.25;54.03;;;;;;;6.09;63.49;94506.75;4174248;28;19928;-72
2022/12/23 07:59:01;;;;;;;102.25;56.13;;;;;;;6.17;61.97;94500.84;4174133;28;20455;-74
2022/12/23 08:01:06;;;;;;;110.88;58.03;;;;;;;6.28;62.09;94495.50;4175410;28;20092;-75
2022/12/23 08:03:10;;;;;;;103.03;56.08;;;;;;;6.40;62.44;94502.22;4176106;28;20060;-77
2022/12/23 08:05:12;;;;;;;97.40;57.08;;;;;;;6.55;62.35;94502.63;4174838;28;20064;-75
2022/12/23 08:07:14;;;;;;;107.60;57.70;;;;;;;6.67;61.08;94503.31;4175522;28;20326;-73
2022/12/23 08:09:16;;;;;;;102.90;55.42;;;;;;;6.74;59.97;94505.19;4167090;28;20492;-73
2022/12/23 08:11:18;;;;;;;102.03;56.67;;;;;;;6.70;59.70;94506.41;4171541;28;20605;-77
2022/12/23 08:13:19;;;;;;;102.82;58.55;;;;;;;6.77;60.61;94511.88;4163355;28;20147;-75
2022/12/23 08:15:21;;;;;;;98.10;56.17;;;;;;;6.82;60.72;94508.84;4176837;28;20480;-74
2022/12/23 08:17:27;;;;;;;112.35;60.47;;;;;;;6.90;60.14;94512.41;4157727;28;20096;-74
2022/12/23 08:19:29;;;;;;;107.80;58.05;;;;;;;6.82;59.70;94512.31;4167906;28;20321;-74
2022/12/23 08:21:31;;;;;;;109.35;60.55;;;;;;;6.84;59.98;94510.38;4159016;28;20053;-71
2022/12/23 08:23:33;;;;;;;100.60;60.65;;;;;;;6.84;59.80;94513.00;4176222;28;20053;-72
2022/12/23 08:25:34;;;;;;;117.63;61.78;;;;;;;6.87;59.77;94510.09;4177174;28;20080;-74
2022/12/23 08:27:36;;;;;;;115.90;61.55;;;;;;;6.93;59.71;94514.75;4180137;28;20487;-73
2022/12/23 08:29:39;;;;;;;107.95;58.92;;;;;;;7.07;59.75;94520.44;4175526;28;20126;-72
2022/12/23 08:31:41;;;;;;;110.45;59.58;;;;;;;7.18;59.68;94520.28;4165187;28;20087;-73
2022/12/23 08:33:45;;;;;;;116.22;61.63;;;;;;;7.30;59.59;94505.28;4179344;28;20067;-74
2022/12/23 08:35:47;;;;;;;110.40;62.20;;;;;;;7.38;58.90;94508.81;4172207;28;20414;-74
2022/12/23 08:37:48;;;;;;;116.15;58.97;;;;;;;7.30;58.29;94516.53;4176261;28;20517;-73
2022/12/23 08:39:50;;;;;;;97.97;56.88;;;;;;;7.24;57.99;94517.09;4178918;28;20080;-74
2022/12/23 08:41:53;;;;;;;106.95;58.97;;;;;;;7.15;58.08;94515.34;4177525;28;20076;-75
2022/12/23 08:43:55;;;;;;;106.45;58.45;;;;;;;6.93;58.42;94508.72;4178431;28;20557;-71
2022/12/23 08:45:57;;;;;;;101.45;58.25;;;;;;;7.08;58.89;94504.69;4178748;28;20056;-73
2022/12/23 08:47:59;;;;;;;104.43;61.78;;;;;;;7.28;58.94;94509.81;4178173;28;20049;-74
2022/12/23 08:50:01;;;;;;;105.45;61.35;;;;;;;7.38;58.39;94513.22;4180095;28;20053;-73
2022/12/23 08:52:03;;;;;;;103.60;59.70;;;;;;;7.42;57.79;94513.72;4179705;28;20445;-73
2022/12/23 08:54:05;;;;;;;100.82;59.70;;;;;;;7.45;57.63;94509.06;4176595;28;20107;-73
2022/12/23 08:56:13;;;;;;;116.95;60.75;;;;;;;7.29;57.16;94503.63;4162322;28;20308;-75
2022/12/23 08:58:17;;;;;;;109.88;60.20;;;;;;;7.14;58.51;94503.28;4178418;28;20057;-73
2022/12/23 09:00:19;;;;;;;111.22;62.50;;;;;;;7.11;59.17;94504.38;4162505;28;20540;-79
2022/12/23 09:02:21;;;;;;;103.35;58.67;;;;;;;7.01;58.46;94506.19;4179031;28;20153;-73
2022/12/23 09:04:23;;;;;;;115.53;61.53;;;;;;;6.92;58.51;94502.66;4178930;28;20084;-74
2022/12/23 09:06:26;;;;;;;102.50;59.28;;;;;;;6.96;58.97;94505.81;4158589;28;20598;-73
2022/12/23 09:08:31;;;;;;;105.65;58.42;;;;;;;6.93;58.83;94511.31;4162386;28;20108;-73
2022/12/23 09:10:33;;;;;;;105.75;58.92;;;;;;;6.80;58.90;94511.63;4175746;28;20080;-81
2022/12/23 09:12:35;;;;;;;104.55;60.28;;;;;;;6.76;59.36;94508.47;4175579;28;20057;-77
2022/12/23 09:14:37;;;;;;;103.32;57.33;;;;;;;6.78;58.88;94503.13;4162998;28;20080;-73
2022/12/23 09:16:38;;;;;;;98.47;58.67;;;;;;;6.66;59.18;94504.25;4182446;28;20095;-73
2022/12/23 09:18:41;;;;;;;106.97;59.83;;;;;;;6.71;59.02;94500.28;4180153;28;20503;-70
2022/12/23 09:20:42;;;;;;;105.85;62.03;;;;;;;6.79;59.17;94507.34;4182492;28;20121;-71
2022/12/23 09:22:44;;;;;;;113.57;62.22;;;;;;;6.83;58.99;94498.31;4162635;28;20061;-71
2022/12/23 09:24:47;;;;;;;109.03;60.17;;;;;;;6.81;59.06;94505.44;4176643;28;20096;-76
2022/12/23 09:26:49;;;;;;;112.03;61.88;;;;;;;6.85;58.68;94501.59;4178413;28;20108;-77
2022/12/23 09:28:51;;;;;;;109.38;58.28;;;;;;;6.81;58.96;94504.63;4153217;28;20045;-73
2022/12/23 09:30:53;;;;;;;106.85;58.75;;;;;;;6.72;59.31;94495.88;4178862;28;20048;-73
2022/12/23 09:32:55;;;;;;;98.90;56.78;;;;;;;6.73;59.30;94500.94;4179968;28;20049;-74
2022/12/23 09:34:57;;;;;;;106.95;58.47;;;;;;;6.81;58.88;94497.63;4178660;28;20053;-75
2022/12/23 09:36:58;;;;;;;107.32;59.17;;;;;;;6.76;58.25;94511.06;4166061;28;20048;-74
2022/12/23 09:39:00;;;;;;;104.40;60.33;;;;;;;6.70;59.03;94500.41;4171360;28;20546;-74
2022/12/23 09:41:09;;;;;;;107.28;60.38;;;;;;;6.73;59.31;94497.50;4168448;28;20046;-75
2022/12/23 09:43:38;;;;;;;104.00;57.58;;;;;;;6.70;58.90;94500.41;4162409;28;20672;-75
2022/12/23 09:45:54;;;;;;;107.88;60.85;;;;;;;6.88;59.04;94496.13;4176036;28;20057;-70
2022/12/23 09:47:57;;;;;;;113.88;60.45;;;;;;;7.04;58.70;94500.72;4143550;28;20061;-74
2022/12/23 09:50:02;;;;;;;105.03;60.20;;;;;;;6.99;58.43;94502.94;4178567;28;20495;-76
2022/12/23 09:52:08;;;;;;;107.18;60.20;;;;;;;6.92;58.87;94496.63;4167881;28;20419;-74
2022/12/23 09:54:18;;;;;;;116.40;62.33;;;;;;;6.94;58.89;94500.75;4151823;28;20137;-75
2022/12/23 09:56:37;;;;;;;115.50;65.47;;;;;;;6.97;59.09;94503.06;4160021;28;20056;-74
2022/12/23 09:58:53;;;;;;;132.02;70.45;;;;;;;7.00;59.12;94495.94;4177862;28;20064;-75
2022/12/23 10:01:20;;;;;;;127.90;75.35;;;;;;;7.02;58.88;94496.63;4159756;28;20187;-74
2022/12/23 10:03:28;;;;;;;149.43;80.03;;;;;;;6.63;60.58;94502.75;4180030;28;20482;-73
2022/12/23 10:05:39;;;;;;;141.63;82.25;;;;;;;6.48;60.53;94494.53;4159517;28;20057;-73
2022/12/23 10:07:52;;;;;;;134.38;76.90;;;;;;;6.46;60.95;94491.25;4161376;28;20049;-75
2022/12/23 10:09:54;;;;;;;145.63;82.43;;;;;;;6.64;61.25;94486.16;4181836;28;20126;-76
2022/12/23 10:11:56;;;;;;;144.77;81.22;;;;;;;6.86;60.56;94484.19;4159496;28;20155;-78